Thunder radar more information blitzortung!


Radar de pluja more information rain snow radar


Visita la nostra xarxa de llocs de meteo:

Template documentation
and downloads

And another site



No particular awareness of the weather is required.    There are no Weather-warnings

Pagina Historial Weather Underground text

Diari Resum Juliol 16, 2017 Unitats:  Tant    Imperial   Mètric
« Previous Dia
SegĂźent Dia »
Diari Setmana Mensual Anual Personalitzada
  Maxima: Minima: Media:
Temperatura: TemperatureC °F /  -17.8 °C 21.9 °F /  -5.6 °C 25.5 °F /  -3.6 °C
Punt de rosada: DewpointC °F /  -17.8 °C 15.5 °F /  -9.2 °C 16.7 °F /  -8.5 °C
Humitat: Humidity % 46 % 58 %
Wind Speed: WindSpeedKMH mph /  0 km/h - 4.4 mph /  7.1 km/h
RĂ fegues de vent: WindSpeedGustKMH mph /  0 km/h - -
Vent:- - SSW
Pression baro: PressurehPa in /  0 hPa 1015.8 in /  34395 hPa -
Precipitacions: 0.0 in /  0 mm    
Historical Graphs
 
 
Dades de taula per Juliol 16, 2017
Temps Temperatura Punt de rosada Pression baro Vent Wind Speed RĂ fegues de vent Humitat Rainfall Rate (Hourly)
TemperatureC °F /  -17.8 °C DewpointC °F /  -17.8 °C PressurehPa in /  0 hPa Calm     Humidity % HourlyPrecipMM in /  0 mm
00:00 24.2 °F /  -4.3 °C 18.4 °F /  -7.6 °C 1016.8 in /  34428.8 hPa SW 4.7 mph /  7.6 km/h 4.7 mph /  7.6 km/h 70 % 0.0 in /  0 mm
00:05 24.1 °F /  -4.4 °C 18.3 °F /  -7.6 °C 1016.8 in /  34428.8 hPa SW 5.6 mph /  9 km/h 5.6 mph /  9 km/h 70 % 0.0 in /  0 mm
11:00 32.8 °F /  0.4 °C 21.3 °F /  -5.9 °C 1017.8 in /  34462.7 hPa South 9.7 mph /  15.6 km/h 17.7 mph /  28.5 km/h 51 % 0.0 in /  0 mm
11:10 32.5 °F /  0.3 °C 20.7 °F /  -6.3 °C 1017.8 in /  34462.7 hPa SSW 3.2 mph /  5.1 km/h 6.4 mph /  10.3 km/h 50 % 0.0 in /  0 mm
11:20 32.8 °F /  0.4 °C 20.7 °F /  -6.3 °C 1017.8 in /  34462.7 hPa SSW 4.8 mph /  7.7 km/h 9.7 mph /  15.6 km/h 49 % 0.0 in /  0 mm
11:30 32.3 °F /  0.2 °C 19.9 °F /  -6.7 °C 1016.8 in /  34428.8 hPa SW 4.8 mph /  7.7 km/h 6.4 mph /  10.3 km/h 48 % 0.0 in /  0 mm
11:40 32.4 °F /  0.2 °C 20.0 °F /  -6.7 °C 1017.8 in /  34462.7 hPa SW 4.8 mph /  7.7 km/h 12.9 mph /  20.8 km/h 48 % 0.0 in /  0 mm
11:50 32.8 °F /  0.4 °C 20.3 °F /  -6.5 °C 1017.8 in /  34462.7 hPa SW 4.8 mph /  7.7 km/h 9.7 mph /  15.6 km/h 48 % 0.0 in /  0 mm
12:00 32.8 °F /  0.4 °C 20.3 °F /  -6.5 °C 1017.8 in /  34462.7 hPa SW 4.8 mph /  7.7 km/h 9.7 mph /  15.6 km/h 48 % 0.0 in /  0 mm
12:10 32.5 °F /  0.3 °C 19.7 °F /  -6.8 °C 1016.8 in /  34428.8 hPa SW 9.7 mph /  15.6 km/h 12.9 mph /  20.8 km/h 47 % 0.0 in /  0 mm
12:20 32.1 °F /  0.1 °C 19.4 °F /  -7 °C 1016.8 in /  34428.8 hPa SW 4.8 mph /  7.7 km/h 16.1 mph /  25.9 km/h 47 % 0.0 in /  0 mm
12:30 32.5 °F /  0.3 °C 19.7 °F /  -6.8 °C 1016.8 in /  34428.8 hPa SW 3.2 mph /  5.1 km/h 9.7 mph /  15.6 km/h 47 % 0.0 in /  0 mm
12:40 32.1 °F /  0.1 °C 19.0 °F /  -7.2 °C 1016.8 in /  34428.8 hPa WSW 4.8 mph /  7.7 km/h 4.8 mph /  7.7 km/h 46 % 0.0 in /  0 mm
12:50 31.5 °F /  -0.3 °C 18.8 °F /  -7.3 °C 1016.8 in /  34428.8 hPa SW 8.0 mph /  12.9 km/h 12.9 mph /  20.8 km/h 47 % 0.0 in /  0 mm
13:00 31.2 °F /  -0.4 °C 18.6 °F /  -7.4 °C 1015.8 in /  34395 hPa SSW 3.2 mph /  5.1 km/h 12.9 mph /  20.8 km/h 47 % 0.0 in /  0 mm
13:10 31.0 °F /  -0.6 °C 18.0 °F /  -7.8 °C 1015.8 in /  34395 hPa SW 4.8 mph /  7.7 km/h 11.3 mph /  18.2 km/h 46 % 0.0 in /  0 mm
13:20 30.8 °F /  -0.7 °C 18.2 °F /  -7.7 °C 1015.8 in /  34395 hPa SW 4.8 mph /  7.7 km/h 8.0 mph /  12.9 km/h 47 % 0.0 in /  0 mm
13:30 30.3 °F /  -0.9 °C 17.7 °F /  -7.9 °C 1015.8 in /  34395 hPa SW 8.0 mph /  12.9 km/h 12.9 mph /  20.8 km/h 47 % 0.0 in /  0 mm
13:40 30.5 °F /  -0.8 °C 17.9 °F /  -7.8 °C 1015.8 in /  34395 hPa WSW 4.8 mph /  7.7 km/h 6.4 mph /  10.3 km/h 47 % 0.0 in /  0 mm
13:50 30.2 °F /  -1 °C 17.3 °F /  -8.2 °C 1015.8 in /  34395 hPa SW 3.2 mph /  5.1 km/h 6.4 mph /  10.3 km/h 46 % 0.0 in /  0 mm
14:00 30.0 °F /  -1.1 °C 17.4 °F /  -8.1 °C 1015.8 in /  34395 hPa SSW 3.2 mph /  5.1 km/h 4.8 mph /  7.7 km/h 47 % 0.0 in /  0 mm
14:10 29.7 °F /  -1.3 °C 17.2 °F /  -8.2 °C 1015.8 in /  34395 hPa SE 3.2 mph /  5.1 km/h 4.8 mph /  7.7 km/h 47 % 0.0 in /  0 mm
14:20 28.8 °F /  -1.8 °C 17.0 °F /  -8.3 °C 1015.8 in /  34395 hPa SE 4.8 mph /  7.7 km/h 6.4 mph /  10.3 km/h 49 % 0.0 in /  0 mm
14:30 28.4 °F /  -2 °C 16.7 °F /  -8.5 °C 1015.8 in /  34395 hPa SSE 3.2 mph /  5.1 km/h 6.4 mph /  10.3 km/h 49 % 0.0 in /  0 mm
14:40 27.7 °F /  -2.4 °C 16.0 °F /  -8.9 °C 1015.8 in /  34395 hPa East 11.3 mph /  18.2 km/h 12.9 mph /  20.8 km/h 49 % 0.0 in /  0 mm
14:50 27.2 °F /  -2.7 °C 15.9 °F /  -8.9 °C 1015.8 in /  34395 hPa East 8.0 mph /  12.9 km/h 11.3 mph /  18.2 km/h 50 % 0.0 in /  0 mm
15:00 27.1 °F /  -2.7 °C 15.8 °F /  -9 °C 1015.8 in /  34395 hPa ESE 8.0 mph /  12.9 km/h 12.9 mph /  20.8 km/h 50 % 0.0 in /  0 mm
15:10 26.9 °F /  -2.8 °C 15.9 °F /  -8.9 °C 1016.8 in /  34428.8 hPa ESE 9.7 mph /  15.6 km/h 9.7 mph /  15.6 km/h 51 % 0.0 in /  0 mm
15:20 26.9 °F /  -2.8 °C 16.2 °F /  -8.8 °C 1016.8 in /  34428.8 hPa ESE 4.8 mph /  7.7 km/h 9.7 mph /  15.6 km/h 52 % 0.0 in /  0 mm
15:30 26.6 °F /  -3 °C 15.9 °F /  -8.9 °C 1016.8 in /  34428.8 hPa ESE 9.7 mph /  15.6 km/h 12.9 mph /  20.8 km/h 52 % 0.0 in /  0 mm
15:40 26.3 °F /  -3.2 °C 15.9 °F /  -8.9 °C 1016.8 in /  34428.8 hPa ESE 8.0 mph /  12.9 km/h 8.0 mph /  12.9 km/h 53 % 0.0 in /  0 mm
15:45 26.1 °F /  -3.3 °C 15.8 °F /  -9 °C 1016.8 in /  34428.8 hPa ESE 4.8 mph /  7.7 km/h 6.4 mph /  10.3 km/h 53 % 0.0 in /  0 mm
19:20 23.0 °F /  -5 °C 16.3 °F /  -8.7 °C 1016.8 in /  34428.8 hPa WSW 1.6 mph /  2.6 km/h 4.8 mph /  7.7 km/h 66 % 0.0 in /  0 mm
19:30 23.0 °F /  -5 °C 16.3 °F /  -8.7 °C 1017.8 in /  34462.7 hPa SW 3.2 mph /  5.1 km/h 4.8 mph /  7.7 km/h 66 % 0.0 in /  0 mm
19:40 22.9 °F /  -5.1 °C 16.2 °F /  -8.8 °C 1017.8 in /  34462.7 hPa WSW 1.6 mph /  2.6 km/h 3.2 mph /  5.1 km/h 66 % 0.0 in /  0 mm
19:50 22.8 °F /  -5.1 °C 16.3 °F /  -8.7 °C 1017.8 in /  34462.7 hPa WSW 3.2 mph /  5.1 km/h 3.2 mph /  5.1 km/h 67 % 0.0 in /  0 mm
20:00 22.7 °F /  -5.2 °C 16.3 °F /  -8.7 °C 1017.8 in /  34462.7 hPa SW 3.2 mph /  5.1 km/h 4.8 mph /  7.7 km/h 67 % 0.0 in /  0 mm
20:10 22.6 °F /  -5.2 °C 16.4 °F /  -8.7 °C 1017.8 in /  34462.7 hPa Calm   3.2 mph /  5.1 km/h 68 % 0.0 in /  0 mm
20:20 22.6 °F /  -5.2 °C 16.4 °F /  -8.7 °C 1017.8 in /  34462.7 hPa Calm   1.6 mph /  2.6 km/h 68 % 0.0 in /  0 mm
20:30 22.6 °F /  -5.2 °C 16.6 °F /  -8.6 °C 1017.8 in /  34462.7 hPa Calm   1.6 mph /  2.6 km/h 69 % 0.0 in /  0 mm
20:40 22.6 °F /  -5.2 °C 16.6 °F /  -8.6 °C 1017.8 in /  34462.7 hPa WNW 1.6 mph /  2.6 km/h 3.2 mph /  5.1 km/h 69 % 0.0 in /  0 mm
20:49 26.1 °F /  -3.3 °C 15.8 °F /  -9 °C 1016.8 in /  34428.8 hPa East 7.4 mph /  11.9 km/h 7.4 mph /  11.9 km/h 53 % 0.0 in /  0 mm
20:50 22.3 °F /  -5.4 °C 16.3 °F /  -8.7 °C 1017.8 in /  34462.7 hPa Calm   1.6 mph /  2.6 km/h 69 % 0.0 in /  0 mm
20:54 26.1 °F /  -3.3 °C 15.8 °F /  -9 °C 1016.8 in /  34428.8 hPa SE 9.0 mph /  14.5 km/h 9.0 mph /  14.5 km/h 53 % 0.0 in /  0 mm
20:59 26.0 °F /  -3.3 °C 15.7 °F /  -9.1 °C 1016.8 in /  34428.8 hPa ESE 10.3 mph /  16.6 km/h 10.3 mph /  16.6 km/h 53 % 0.0 in /  0 mm
21:00 22.3 °F /  -5.4 °C 16.6 °F /  -8.6 °C 1017.8 in /  34462.7 hPa Calm   3.2 mph /  5.1 km/h 70 % 0.0 in /  0 mm
21:04 25.8 °F /  -3.4 °C 15.5 °F /  -9.2 °C 1016.8 in /  34428.8 hPa ESE 9.3 mph /  15 km/h 9.3 mph /  15 km/h 53 % 0.0 in /  0 mm
21:09 25.7 °F /  -3.5 °C 15.7 °F /  -9.1 °C 1017.8 in /  34462.7 hPa SE 7.4 mph /  11.9 km/h 7.6 mph /  12.2 km/h 54 % 0.0 in /  0 mm
21:10 22.4 °F /  -5.3 °C 16.4 °F /  -8.7 °C 1017.8 in /  34462.7 hPa WSW 1.6 mph /  2.6 km/h 3.2 mph /  5.1 km/h 69 % 0.0 in /  0 mm
21:14 25.6 °F /  -3.6 °C 15.6 °F /  -9.1 °C 1017.8 in /  34462.7 hPa ESE 7.4 mph /  11.9 km/h 7.4 mph /  11.9 km/h 54 % 0.0 in /  0 mm
21:20 25.6 °F /  -3.6 °C 15.6 °F /  -9.1 °C 1017.8 in /  34462.7 hPa East 4.8 mph /  7.7 km/h 9.7 mph /  15.6 km/h 54 % 0.0 in /  0 mm
21:25 25.5 °F /  -3.6 °C 15.5 °F /  -9.2 °C 1017.8 in /  34462.7 hPa East 7.4 mph /  11.9 km/h 7.4 mph /  11.9 km/h 54 % 0.0 in /  0 mm
21:30 25.5 °F /  -3.6 °C 15.5 °F /  -9.2 °C 1017.8 in /  34462.7 hPa East 7.4 mph /  11.9 km/h 7.4 mph /  11.9 km/h 54 % 0.0 in /  0 mm
21:36 25.4 °F /  -3.7 °C 15.7 °F /  -9.1 °C 1017.8 in /  34462.7 hPa ENE 5.6 mph /  9 km/h 5.6 mph /  9 km/h 55 % 0.0 in /  0 mm
21:40 22.4 °F /  -5.3 °C 16.7 °F /  -8.5 °C 1017.8 in /  34462.7 hPa SW 1.6 mph /  2.6 km/h 1.6 mph /  2.6 km/h 70 % 0.0 in /  0 mm
21:41 25.3 °F /  -3.7 °C 15.6 °F /  -9.1 °C 1017.8 in /  34462.7 hPa SSE 3.7 mph /  6 km/h 3.7 mph /  6 km/h 55 % 0.0 in /  0 mm
21:46 25.3 °F /  -3.7 °C 15.6 °F /  -9.1 °C 1017.8 in /  34462.7 hPa West 2.3 mph /  3.7 km/h   55 % 0.0 in /  0 mm
21:50 22.4 °F /  -5.3 °C 16.7 °F /  -8.5 °C 1017.8 in /  34462.7 hPa SW 3.2 mph /  5.1 km/h 3.2 mph /  5.1 km/h 70 % 0.0 in /  0 mm
21:51 25.2 °F /  -3.8 °C 15.5 °F /  -9.2 °C 1017.8 in /  34462.7 hPa Calm   1.4 mph /  2.3 km/h 55 % 0.0 in /  0 mm
21:56 25.2 °F /  -3.8 °C 15.5 °F /  -9.2 °C 1017.8 in /  34462.7 hPa SW 2.3 mph /  3.7 km/h 2.6 mph /  4.2 km/h 55 % 0.0 in /  0 mm
22:00 22.4 °F /  -5.3 °C 16.7 °F /  -8.5 °C 1017.8 in /  34462.7 hPa SW 3.2 mph /  5.1 km/h 4.8 mph /  7.7 km/h 70 % 0.0 in /  0 mm
22:01 25.2 °F /  -3.8 °C 15.5 °F /  -9.2 °C 1017.8 in /  34462.7 hPa WSW 3.9 mph /  6.3 km/h 3.9 mph /  6.3 km/h 55 % 0.0 in /  0 mm
22:06 25.1 °F /  -3.8 °C 15.7 °F /  -9.1 °C 1017.8 in /  34462.7 hPa WSW 3.7 mph /  6 km/h 3.7 mph /  6 km/h 56 % 0.0 in /  0 mm
22:10 22.5 °F /  -5.3 °C 16.8 °F /  -8.4 °C 1016.8 in /  34428.8 hPa SW 1.6 mph /  2.6 km/h 4.8 mph /  7.7 km/h 70 % 0.0 in /  0 mm
22:11 25.0 °F /  -3.9 °C 15.9 °F /  -8.9 °C 1017.8 in /  34462.7 hPa SW 3.7 mph /  6 km/h 3.9 mph /  6.3 km/h 57 % 0.0 in /  0 mm
22:16 24.9 °F /  -3.9 °C 16.1 °F /  -8.8 °C 1017.8 in /  34462.7 hPa WSW 6.1 mph /  9.8 km/h 6.1 mph /  9.8 km/h 58 % 0.0 in /  0 mm
22:20 22.6 °F /  -5.2 °C 16.8 °F /  -8.4 °C 1016.8 in /  34428.8 hPa SW 1.6 mph /  2.6 km/h 3.2 mph /  5.1 km/h 70 % 0.0 in /  0 mm
22:21 24.8 °F /  -4 °C 16.2 °F /  -8.8 °C 1017.8 in /  34462.7 hPa West 7.4 mph /  11.9 km/h 7.4 mph /  11.9 km/h 59 % 0.0 in /  0 mm
22:26 24.7 °F /  -4.1 °C 16.2 °F /  -8.8 °C 1017.8 in /  34462.7 hPa West 5.6 mph /  9 km/h 5.6 mph /  9 km/h 59 % 0.0 in /  0 mm
22:30 22.6 °F /  -5.2 °C 16.8 °F /  -8.4 °C 1016.8 in /  34428.8 hPa SW 1.6 mph /  2.6 km/h 3.2 mph /  5.1 km/h 70 % 0.0 in /  0 mm
22:31 24.6 °F /  -4.1 °C 16.1 °F /  -8.8 °C 1017.8 in /  34462.7 hPa SW 5.6 mph /  9 km/h 5.6 mph /  9 km/h 59 % 0.0 in /  0 mm
22:36 24.5 °F /  -4.2 °C 16.2 °F /  -8.8 °C 1017.8 in /  34462.7 hPa WSW 5.6 mph /  9 km/h 5.6 mph /  9 km/h 60 % 0.0 in /  0 mm
22:40 22.6 °F /  -5.2 °C 16.8 °F /  -8.4 °C 1016.8 in /  34428.8 hPa SW 3.2 mph /  5.1 km/h 3.2 mph /  5.1 km/h 70 % 0.0 in /  0 mm
22:41 24.4 °F /  -4.2 °C 16.1 °F /  -8.8 °C 1017.8 in /  34462.7 hPa SSE 5.6 mph /  9 km/h 5.6 mph /  9 km/h 60 % 0.0 in /  0 mm
22:47 24.3 °F /  -4.3 °C 16.1 °F /  -8.8 °C 1017.8 in /  34462.7 hPa SW 5.6 mph /  9 km/h 5.6 mph /  9 km/h 60 % 0.0 in /  0 mm
22:50 22.6 °F /  -5.2 °C 16.8 °F /  -8.4 °C 1016.8 in /  34428.8 hPa WSW 1.6 mph /  2.6 km/h 3.2 mph /  5.1 km/h 70 % 0.0 in /  0 mm
22:52 24.2 °F /  -4.3 °C 16.2 °F /  -8.8 °C 1017.8 in /  34462.7 hPa SSW 5.0 mph /  8 km/h 5.0 mph /  8 km/h 61 % 0.0 in /  0 mm
22:57 24.2 °F /  -4.3 °C 16.2 °F /  -8.8 °C 1017.8 in /  34462.7 hPa SW 7.4 mph /  11.9 km/h 7.4 mph /  11.9 km/h 61 % 0.0 in /  0 mm
23:00 22.3 °F /  -5.4 °C 16.6 °F /  -8.6 °C 1016.8 in /  34428.8 hPa WSW 1.6 mph /  2.6 km/h 3.2 mph /  5.1 km/h 70 % 0.0 in /  0 mm
23:02 24.1 °F /  -4.4 °C 16.1 °F /  -8.8 °C 1017.8 in /  34462.7 hPa WSW 4.2 mph /  6.8 km/h 4.2 mph /  6.8 km/h 61 % 0.0 in /  0 mm
23:07 24.0 °F /  -4.4 °C 16.0 °F /  -8.9 °C 1017.8 in /  34462.7 hPa SW 4.7 mph /  7.6 km/h 4.7 mph /  7.6 km/h 61 % 0.0 in /  0 mm
23:10 22.2 °F /  -5.4 °C 16.4 °F /  -8.7 °C 1016.8 in /  34428.8 hPa SW 3.2 mph /  5.1 km/h 3.2 mph /  5.1 km/h 70 % 0.0 in /  0 mm
23:12 23.9 °F /  -4.5 °C 16.2 °F /  -8.8 °C 1017.8 in /  34462.7 hPa SW 5.6 mph /  9 km/h 5.6 mph /  9 km/h 62 % 0.0 in /  0 mm
23:17 23.9 °F /  -4.5 °C 16.4 °F /  -8.7 °C 1017.8 in /  34462.7 hPa SW 5.6 mph /  9 km/h 5.6 mph /  9 km/h 63 % 0.0 in /  0 mm
23:20 22.1 °F /  -5.5 °C 16.6 °F /  -8.6 °C 1016.8 in /  34428.8 hPa Calm   3.2 mph /  5.1 km/h 71 % 0.0 in /  0 mm
23:22 23.8 °F /  -4.6 °C 16.3 °F /  -8.7 °C 1016.8 in /  34428.8 hPa WSW 3.7 mph /  6 km/h 3.7 mph /  6 km/h 63 % 0.0 in /  0 mm
23:27 23.7 °F /  -4.6 °C 16.2 °F /  -8.8 °C 1016.8 in /  34428.8 hPa SW 4.2 mph /  6.8 km/h 4.2 mph /  6.8 km/h 63 % 0.0 in /  0 mm
23:30 22.0 °F /  -5.6 °C 16.5 °F /  -8.6 °C 1016.8 in /  34428.8 hPa Calm   1.6 mph /  2.6 km/h 71 % 0.0 in /  0 mm
23:32 23.6 °F /  -4.7 °C 16.2 °F /  -8.8 °C 1016.8 in /  34428.8 hPa SW 3.7 mph /  6 km/h 3.9 mph /  6.3 km/h 63 % 0.0 in /  0 mm
23:37 23.6 °F /  -4.7 °C 16.2 °F /  -8.8 °C 1016.8 in /  34428.8 hPa SW 3.7 mph /  6 km/h 3.7 mph /  6 km/h 63 % 0.0 in /  0 mm
23:40 22.0 °F /  -5.6 °C 16.5 °F /  -8.6 °C 1016.8 in /  34428.8 hPa Calm   3.2 mph /  5.1 km/h 71 % 0.0 in /  0 mm
23:42 23.5 °F /  -4.7 °C 16.3 °F /  -8.7 °C 1016.8 in /  34428.8 hPa WSW 3.7 mph /  6 km/h 3.7 mph /  6 km/h 64 % 0.0 in /  0 mm
23:47 23.4 °F /  -4.8 °C 16.2 °F /  -8.8 °C 1016.8 in /  34428.8 hPa SW 5.6 mph /  9 km/h 5.6 mph /  9 km/h 64 % 0.0 in /  0 mm
23:50 21.9 °F /  -5.6 °C 16.6 °F /  -8.6 °C 1016.8 in /  34428.8 hPa Calm   1.6 mph /  2.6 km/h 72 % 0.0 in /  0 mm
23:52 23.4 °F /  -4.8 °C 16.2 °F /  -8.8 °C 1017.8 in /  34462.7 hPa SW 3.7 mph /  6 km/h 3.7 mph /  6 km/h 64 % 0.0 in /  0 mm
23:57 23.3 °F /  -4.8 °C 16.1 °F /  -8.8 °C 1017.8 in /  34462.7 hPa SW 5.3 mph /  8.5 km/h 5.3 mph /  8.5 km/h 64 % 0.0 in /  0 mm
Meteo Sesrovires
Elogis d' Weather Underground - 1.25 mb

Guio original per  Jim McMurry - jmcmurry@mwt.net Adaptat per a la plantilla per  Wim van der Kuil - Leuven-Template.eu

Trobareu la nostra informacio del temps tambe a:

Weather Underground

AWEKAS